Terminal Aerodrome Forecast
Issued by NWS

Home | Current Version | Previous Version | Text Only | Print | Product List | Glossary On
Versions: 1 2 3 4 5 6 7 8 9 10 11 12 13 14 15 16
000
FTAK31 PAJN 052300
TAFAWG
TAF
PAWG 052320Z 0600/0624 VRB03KT P6SM -RA SCT015 BKN035 OVC040
     FM060600 14005KT 5SM -SHRA BR BKN015 OVC030
     FM061400 11004KT P6SM -SHRA SCT015 BKN025 OVC035
     FM062100 10004KT P6SM VCSH SCT025 BKN050
      AMD LTD TO CLD VIS AND WIND 0606/0615=

USA.gov is the U.S. government's official web portal to all federal, state and local government web resources and services.